Time;durP1;ratioP1;P1;durP2;ratioP2;P2;SDS_P1;SDS_P2;PMS_P1;PMS_P2;Temp;Humidity;BMP_temperature;BMP_pressure;BME280_temperature;BME280_humidity;BME280_pressure;Samples;Min_cycle;Max_cycle;Signal;HPM_P1;HPM_P2
2021/11/01 00:00:18;;;;;;;25.43;15.30;;;11.90;99.90;;;;;;5002849;28;20189;-80
2021/11/01 00:02:45;;;;;;;24.70;16.13;;;12.10;99.90;;;;;;4983031;28;20413;-79
2021/11/01 00:05:12;;;;;;;21.70;16.30;;;12.10;99.90;;;;;;4983034;28;20865;-80
2021/11/01 00:07:40;;;;;;;26.70;15.27;;;12.10;99.90;;;;;;4983100;28;20421;-81
2021/11/01 00:10:29;;;;;;;21.03;15.33;;;12.10;99.90;;;;;;4947213;29;20467;-81
2021/11/01 00:12:55;;;;;;;18.70;13.47;;;12.20;99.90;;;;;;4940464;28;20423;-81
2021/11/01 00:15:21;;;;;;;22.23;15.43;;;12.10;99.90;;;;;;4907837;29;20439;-82
2021/11/01 00:17:47;;;;;;;22.33;16.23;;;12.10;99.90;;;;;;4908499;29;20200;-81
2021/11/01 00:20:13;;;;;;;21.77;17.17;;;12.00;99.90;;;;;;4925311;29;20188;-80
2021/11/01 00:22:40;;;;;;;21.23;14.60;;;12.00;99.90;;;;;;4894081;29;20216;-80
2021/11/01 00:25:07;;;;;;;18.97;15.23;;;11.90;99.90;;;;;;4910334;29;20468;-79
2021/11/01 00:27:33;;;;;;;22.00;15.70;;;11.90;99.90;;;;;;4909818;29;20473;-80
2021/11/01 00:29:59;;;;;;;19.77;15.93;;;11.90;99.90;;;;;;4913071;29;20436;-80
2021/11/01 00:32:28;;;;;;;24.87;17.67;;;11.80;99.90;;;;;;4895618;29;20412;-80
2021/11/01 00:34:54;;;;;;;24.87;14.80;;;11.70;99.90;;;;;;4932219;29;20967;-79
2021/11/01 00:37:21;;;;;;;20.33;14.97;;;11.60;99.90;;;;;;4948345;29;20246;-79
2021/11/01 00:39:49;;;;;;;22.13;15.83;;;11.60;99.90;;;;;;4933011;29;20827;-80
2021/11/01 00:42:16;;;;;;;20.17;14.50;;;11.60;99.90;;;;;;4900402;29;20427;-79
2021/11/01 00:44:42;;;;;;;28.07;17.10;;;11.60;99.90;;;;;;4957682;28;20469;-80
2021/11/01 00:47:11;;;;;;;18.20;14.40;;;11.60;99.90;;;;;;4947159;29;20973;-80
2021/11/01 00:49:41;;;;;;;23.20;14.30;;;11.60;99.90;;;;;;4967500;28;20405;-81
2021/11/01 00:52:10;;;;;;;18.80;13.10;;;11.60;99.90;;;;;;4955732;28;20429;-81
2021/11/01 00:54:36;;;;;;;22.90;14.63;;;11.50;99.90;;;;;;4990710;28;20522;-81
2021/11/01 00:57:03;;;;;;;20.00;16.73;;;11.40;99.90;;;;;;5003732;28;20429;-81
2021/11/01 00:59:49;;;;;;;23.87;16.10;;;11.40;99.90;;;;;;5003462;28;20468;-81
2021/11/01 01:02:15;;;;;;;18.63;14.10;;;11.50;99.90;;;;;;4986034;28;20425;-80
2021/11/01 01:04:41;;;;;;;19.97;16.27;;;11.50;99.90;;;;;;5005534;28;20460;-81
2021/11/01 01:07:08;;;;;;;19.47;16.20;;;11.40;99.90;;;;;;5023069;28;20936;-80
2021/11/01 01:09:35;;;;;;;24.40;16.73;;;11.60;99.90;;;;;;4989694;28;20422;-81
2021/11/01 01:12:03;;;;;;;21.60;14.37;;;11.50;99.90;;;;;;5022747;28;20466;-81
2021/11/01 01:14:30;;;;;;;21.03;14.33;;;11.40;99.90;;;;;;5022806;28;20519;-80
2021/11/01 01:17:00;;;;;;;22.27;15.90;;;11.20;99.90;;;;;;5003198;28;20413;-81
2021/11/01 01:19:42;;;;;;;25.73;15.87;;;11.20;99.90;;;;;;4984794;28;20519;-81
2021/11/01 01:22:14;;;;;;;21.80;16.03;;;11.10;99.90;;;;;;4985804;28;20530;-81
2021/11/01 01:24:40;;;;;;;22.10;15.60;;;11.20;99.90;;;;;;5004765;28;20484;-81
2021/11/01 01:27:07;;;;;;;24.83;16.33;;;11.20;99.90;;;;;;5004998;28;20425;-81
2021/11/01 01:29:33;;;;;;;23.30;16.47;;;11.10;99.90;;;;;;4974915;28;21059;-80
2021/11/01 01:32:02;;;;;;;20.17;15.57;;;11.00;99.90;;;;;;5008381;28;20412;-80
2021/11/01 01:34:30;;;;;;;23.40;16.00;;;10.80;99.90;;;;;;4985174;28;20238;-81
2021/11/01 01:37:16;;;;;;;25.43;13.80;;;10.80;99.90;;;;;;5026983;28;20855;-80
2021/11/01 01:39:45;;;;;;;21.03;15.60;;;10.50;99.90;;;;;;5039513;28;20455;-81
2021/11/01 01:42:11;;;;;;;19.37;15.60;;;10.40;99.90;;;;;;5027139;28;20530;-80
2021/11/01 01:44:38;;;;;;;18.17;13.97;;;10.50;99.90;;;;;;5041909;28;20951;-81
2021/11/01 01:47:04;;;;;;;21.90;15.67;;;10.50;99.90;;;;;;5032217;28;20294;-81
2021/11/01 01:49:33;;;;;;;21.63;16.27;;;10.60;99.90;;;;;;5066576;28;20406;-80
2021/11/01 01:52:00;;;;;;;24.00;16.10;;;10.60;99.90;;;;;;5045735;28;20918;-81
2021/11/01 01:54:27;;;;;;;20.70;15.60;;;10.60;99.90;;;;;;5061169;28;20418;-81
2021/11/01 01:56:57;;;;;;;26.30;16.40;;;10.90;99.90;;;;;;5061093;28;20407;-80
2021/11/01 01:59:28;;;;;;;25.30;16.40;;;11.10;99.90;;;;;;5046589;28;20411;-80
2021/11/01 02:01:55;;;;;;;23.80;17.50;;;11.20;99.90;;;;;;5024574;28;20430;-81
2021/11/01 02:04:26;;;;;;;23.03;16.37;;;11.30;99.90;;;;;;5003749;28;20468;-80
2021/11/01 02:07:07;;;;;;;23.03;16.13;;;11.20;99.90;;;;;;5051090;28;20459;-80
2021/11/01 02:10:02;;;;;;;27.23;17.20;;;11.00;99.90;;;;;;5010673;28;20515;-80
2021/11/01 02:12:44;;;;;;;20.63;15.97;;;11.00;99.90;;;;;;5026041;28;20412;-80
2021/11/01 02:15:18;;;;;;;23.97;16.60;;;10.90;99.90;;;;;;5039443;28;20419;-79
2021/11/01 02:17:51;;;;;;;25.70;16.03;;;10.80;99.90;;;;;;5023580;28;20895;-79
2021/11/01 02:20:32;;;;;;;23.50;15.57;;;10.90;99.90;;;;;;5023467;28;20419;-79
2021/11/01 02:23:12;;;;;;;22.77;15.47;;;10.90;99.90;;;;;;5049583;28;20499;-80
2021/11/01 02:25:42;;;;;;;20.43;14.57;;;10.80;99.90;;;;;;5042067;28;20458;-79
2021/11/01 02:28:10;;;;;;;21.67;15.40;;;10.80;99.90;;;;;;5043087;28;20804;-80
2021/11/01 02:30:38;;;;;;;20.93;15.97;;;10.80;99.90;;;;;;5043183;28;20955;-80
2021/11/01 02:33:09;;;;;;;23.00;15.53;;;10.90;99.90;;;;;;5020103;28;20405;-81
2021/11/01 02:35:38;;;;;;;22.00;16.30;;;10.70;99.90;;;;;;5002636;28;20472;-81
2021/11/01 02:38:06;;;;;;;26.00;17.57;;;10.70;99.90;;;;;;5002986;28;20863;-80
2021/11/01 02:40:34;;;;;;;24.30;14.50;;;10.70;99.90;;;;;;5002679;28;20412;-80
2021/11/01 02:43:00;;;;;;;23.47;17.00;;;10.80;99.90;;;;;;5002914;28;20428;-80
2021/11/01 02:45:27;;;;;;;27.73;16.30;;;10.70;99.90;;;;;;5018775;28;21059;-80
2021/11/01 02:47:53;;;;;;;22.17;15.10;;;10.60;99.90;;;;;;5004081;28;20451;-78
2021/11/01 02:50:20;;;;;;;27.10;16.30;;;10.50;99.90;;;;;;5008789;28;20894;-78
2021/11/01 02:52:47;;;;;;;20.87;15.63;;;10.40;99.90;;;;;;5008920;28;20417;-77
2021/11/01 02:55:16;;;;;;;18.43;14.00;;;10.50;99.90;;;;;;4993482;28;20424;-79
2021/11/01 02:57:43;;;;;;;23.23;15.90;;;10.50;99.90;;;;;;4989937;28;20994;-80
2021/11/01 03:00:11;;;;;;;25.77;15.93;;;10.50;99.90;;;;;;4988740;28;20420;-80
2021/11/01 03:02:36;;;;;;;23.43;14.53;;;10.50;99.90;;;;;;4987819;28;20463;-79
2021/11/01 03:05:13;;;;;;;23.17;16.00;;;10.70;99.90;;;;;;5041701;28;20507;-79
2021/11/01 03:07:44;;;;;;;23.27;15.67;;;10.80;99.90;;;;;;5027571;28;20214;-80
2021/11/01 03:10:11;;;;;;;22.50;14.53;;;10.80;99.90;;;;;;4977293;28;20410;-79
2021/11/01 03:12:44;;;;;;;24.23;15.20;;;10.80;99.90;;;;;;4963086;29;20407;-80
2021/11/01 03:15:23;;;;;;;28.23;14.20;;;10.90;99.90;;;;;;5001073;28;20408;-79
2021/11/01 03:18:05;;;;;;;18.33;12.30;;;11.10;99.90;;;;;;5001199;28;20382;-78
2021/11/01 03:20:35;;;;;;;22.70;15.80;;;11.20;99.90;;;;;;4987412;28;20494;-79
2021/11/01 03:23:08;;;;;;;19.43;14.67;;;11.30;99.90;;;;;;5019400;28;20873;-80
2021/11/01 03:25:45;;;;;;;19.80;12.97;;;11.40;99.90;;;;;;5019343;28;20463;-79
2021/11/01 03:28:19;;;;;;;22.40;13.07;;;11.30;99.90;;;;;;5018730;28;20387;-80
2021/11/01 03:30:47;;;;;;;19.33;14.53;;;11.30;99.90;;;;;;5018508;28;20419;-80
2021/11/01 03:33:17;;;;;;;23.40;14.47;;;11.40;99.90;;;;;;5019656;28;20405;-80
2021/11/01 03:35:45;;;;;;;31.27;16.60;;;11.40;99.90;;;;;;5018868;28;20464;-79
2021/11/01 03:38:13;;;;;;;22.03;14.20;;;11.50;99.90;;;;;;5002289;28;20436;-79
2021/11/01 03:40:42;;;;;;;17.67;13.23;;;11.60;99.90;;;;;;5030629;28;20403;-79
2021/11/01 03:43:09;;;;;;;18.53;13.13;;;11.50;99.90;;;;;;5042448;28;20441;-80
2021/11/01 03:45:38;;;;;;;21.63;15.20;;;11.30;99.90;;;;;;5032928;28;20463;-80
2021/11/01 03:48:09;;;;;;;24.80;14.70;;;11.30;99.90;;;;;;5018931;28;20554;-80
2021/11/01 03:50:45;;;;;;;17.83;13.60;;;11.30;99.90;;;;;;5003171;28;20436;-80
2021/11/01 03:53:11;;;;;;;21.30;15.30;;;11.20;99.90;;;;;;5006552;28;20447;-80
2021/11/01 03:55:37;;;;;;;21.70;14.73;;;11.10;99.90;;;;;;5023517;28;20409;-80
2021/11/01 03:58:06;;;;;;;21.40;15.00;;;11.10;99.90;;;;;;5023140;28;20412;-80
2021/11/01 04:00:35;;;;;;;19.07;14.70;;;11.10;99.90;;;;;;5005567;28;20408;-80
2021/11/01 04:03:05;;;;;;;22.87;16.10;;;11.20;99.90;;;;;;5003047;28;20823;-80
2021/11/01 04:05:31;;;;;;;23.40;14.30;;;11.40;99.90;;;;;;5003227;28;20528;-79
2021/11/01 04:07:58;;;;;;;23.80;16.80;;;11.30;99.90;;;;;;4986940;28;20452;-79
2021/11/01 04:10:25;;;;;;;28.83;16.23;;;11.20;99.90;;;;;;5002964;28;20188;-79
2021/11/01 04:12:51;;;;;;;23.30;14.00;;;11.00;99.90;;;;;;5019121;28;20507;-79
2021/11/01 04:15:24;;;;;;;24.40;17.93;;;11.00;99.90;;;;;;4987247;28;20412;-80
2021/11/01 04:17:56;;;;;;;27.47;16.80;;;10.90;99.90;;;;;;5025657;28;20424;-79
2021/11/01 04:20:28;;;;;;;20.13;14.33;;;11.00;99.90;;;;;;5026063;28;21006;-79
2021/11/01 04:23:01;;;;;;;22.90;16.83;;;11.00;99.90;;;;;;5025669;28;20388;-80
2021/11/01 04:25:35;;;;;;;21.67;15.80;;;11.10;99.90;;;;;;5051541;28;20473;-80
2021/11/01 04:28:01;;;;;;;20.13;15.63;;;10.80;99.90;;;;;;5045197;28;20768;-80
2021/11/01 04:30:34;;;;;;;21.37;14.97;;;10.80;99.90;;;;;;5028669;28;20459;-80
2021/11/01 04:33:13;;;;;;;19.70;14.70;;;10.60;99.90;;;;;;5007279;28;20415;-80
2021/11/01 04:35:40;;;;;;;25.70;17.63;;;10.60;99.90;;;;;;4989423;28;20452;-79
2021/11/01 04:38:24;;;;;;;23.30;17.07;;;10.60;99.90;;;;;;4974771;28;20412;-80
2021/11/01 04:41:11;;;;;;;25.67;17.30;;;10.60;99.90;;;;;;4996093;28;20417;-79
2021/11/01 04:44:05;;;;;;;24.00;16.67;;;10.60;99.90;;;;;;5022569;28;20973;-79
2021/11/01 04:54:39;;;;;;;24.53;17.57;;;10.30;99.90;;;;;;5009838;28;20432;-79
2021/11/01 04:57:09;;;;;;;25.17;15.57;;;10.10;99.90;;;;;;5007944;28;20416;-79
2021/11/01 04:59:40;;;;;;;24.33;15.93;;;10.00;99.90;;;;;;4991647;28;20404;-79
2021/11/01 05:02:09;;;;;;;26.30;17.73;;;10.20;99.90;;;;;;5025753;28;20410;-80
2021/11/01 05:04:39;;;;;;;26.60;16.90;;;10.10;99.90;;;;;;5025411;28;20637;-79
2021/11/01 05:07:07;;;;;;;24.47;16.77;;;10.10;99.90;;;;;;5041911;28;20813;-80
2021/11/01 05:09:44;;;;;;;30.20;16.60;;;10.20;99.90;;;;;;4992865;28;20421;-81
2021/11/01 05:12:21;;;;;;;24.23;18.30;;;10.00;99.90;;;;;;4997413;28;20915;-81
2021/11/01 05:14:58;;;;;;;24.13;17.43;;;10.10;99.90;;;;;;5026654;28;20383;-81
2021/11/01 05:17:39;;;;;;;24.00;16.47;;;10.00;99.90;;;;;;4990317;28;20439;-80
2021/11/01 05:20:13;;;;;;;22.27;15.53;;;10.20;99.90;;;;;;4993163;28;20896;-81
2021/11/01 05:22:52;;;;;;;28.53;17.90;;;10.10;99.90;;;;;;4983194;28;20452;-81
2021/11/01 05:25:26;;;;;;;25.10;16.90;;;10.20;99.90;;;;;;4963609;29;20505;-81
2021/11/01 05:36:03;;;;;;;23.60;16.70;;;10.30;99.90;;;;;;4926390;29;20468;-81
2021/11/01 05:38:34;;;;;;;20.57;15.30;;;10.30;99.90;;;;;;4944968;29;20487;-81
2021/11/01 05:41:03;;;;;;;25.27;16.70;;;10.40;99.90;;;;;;4961121;29;20448;-81
2021/11/01 05:43:38;;;;;;;25.80;15.60;;;10.60;99.90;;;;;;4944666;29;20407;-80
2021/11/01 05:46:04;;;;;;;23.30;18.03;;;10.50;99.90;;;;;;4970201;28;20470;-80
2021/11/01 05:48:30;;;;;;;25.33;17.27;;;10.40;99.90;;;;;;4979221;28;20419;-81
2021/11/01 05:50:56;;;;;;;21.63;15.67;;;10.40;99.90;;;;;;4963221;29;20180;-81
2021/11/01 05:53:26;;;;;;;24.50;16.77;;;10.40;99.90;;;;;;4978662;28;20466;-80
2021/11/01 05:56:02;;;;;;;21.53;15.27;;;10.50;99.90;;;;;;4972814;28;20440;-80
2021/11/01 05:58:40;;;;;;;26.43;16.37;;;10.50;99.90;;;;;;4971018;28;20402;-81
2021/11/01 06:03:57;;;;;;;20.30;15.03;;;10.60;99.90;;;;;;4986794;28;20405;-80
2021/11/01 06:06:41;;;;;;;21.33;16.07;;;10.70;99.90;;;;;;5001506;28;20405;-81
2021/11/01 06:14:35;;;;;;;18.57;13.00;;;10.60;99.90;;;;;;4965850;28;20414;-80
2021/11/01 06:17:02;;;;;;;19.27;13.00;;;10.70;99.90;;;;;;4948839;28;20426;-81
2021/11/01 06:19:28;;;;;;;28.37;13.90;;;10.80;99.90;;;;;;4964162;28;20489;-81
2021/11/01 06:21:55;;;;;;;18.33;13.70;;;10.90;99.90;;;;;;4964720;28;20512;-81
2021/11/01 06:24:47;;;;;;;20.47;14.10;;;10.90;99.90;;;;;;4929808;29;20461;-80
2021/11/01 06:27:12;;;;;;;23.80;14.57;;;11.00;99.90;;;;;;4948357;29;20486;-80
2021/11/01 06:30:08;;;;;;;21.30;14.10;;;10.80;99.90;;;;;;4991621;28;20414;-81
2021/11/01 06:32:36;;;;;;;20.20;14.07;;;10.90;99.90;;;;;;4990095;28;20908;-81
2021/11/01 06:49:45;;;;;;;21.17;13.57;;;10.80;99.90;;;;;;4986137;28;20424;-81
2021/11/01 06:52:21;;;;;;;19.13;14.30;;;10.80;99.90;;;;;;4999440;28;20397;-81
2021/11/01 06:54:59;;;;;;;22.60;14.83;;;10.70;99.90;;;;;;5008432;28;20411;-81
2021/11/01 06:57:32;;;;;;;18.40;12.73;;;10.60;99.90;;;;;;5052532;28;20436;-81
2021/11/01 07:16:08;;;;;;;17.27;10.93;;;10.80;99.90;;;;;;4983060;28;20539;-80
2021/11/01 07:18:43;;;;;;;16.97;11.10;;;10.80;99.90;;;;;;4967009;28;20413;-80
2021/11/01 07:21:29;;;;;;;17.13;11.20;;;10.80;99.90;;;;;;4975728;28;20448;-79
2021/11/01 07:24:25;;;;;;;15.40;11.63;;;10.90;99.90;;;;;;4991226;28;20443;-80
2021/11/01 08:21:15;;;;;;;12.33;9.50;;;11.30;99.90;;;;;;5034547;28;20402;-77
2021/11/01 08:23:41;;;;;;;17.67;11.20;;;11.20;99.90;;;;;;5083364;28;20417;-80
2021/11/01 08:26:36;;;;;;;16.00;11.60;;;11.20;99.90;;;;;;5065524;28;20437;-80
2021/11/01 08:29:12;;;;;;;13.30;9.83;;;11.20;99.90;;;;;;5080941;28;20413;-81
2021/11/01 08:35:04;;;;;;;13.27;10.10;;;11.30;99.90;;;;;;5084433;28;20456;-80
2021/11/01 08:37:33;;;;;;;14.10;9.70;;;11.20;99.90;;;;;;5073123;28;20823;-80
2021/11/01 08:43:23;;;;;;;12.73;6.70;;;11.40;99.90;;;;;;5068716;28;20610;-80
2021/11/01 09:02:52;;;;;;;9.53;5.80;;;11.80;99.90;;;;;;5010073;28;20798;-80
2021/11/01 09:08:11;;;;;;;9.00;6.33;;;11.80;99.90;;;;;;5026773;28;20484;-79
2021/11/01 09:11:20;;;;;;;7.97;6.53;;;11.70;99.90;;;;;;4995072;28;20436;-81
2021/11/01 09:19:01;;;;;;;5.87;5.27;;;11.60;99.90;;;;;;4989373;28;20461;-77
2021/11/01 09:21:35;;;;;;;6.13;4.77;;;11.80;99.90;;;;;;4967062;29;20438;-78
2021/11/01 09:24:17;;;;;;;8.17;6.10;;;11.50;99.90;;;;;;4982044;28;20414;-79
2021/11/01 09:26:46;;;;;;;10.50;5.33;;;11.70;99.90;;;;;;4971505;28;20398;-77
2021/11/01 09:29:21;;;;;;;5.27;4.60;;;11.70;99.90;;;;;;4989634;28;20422;-81
2021/11/01 09:37:41;;;;;;;6.27;4.70;;;11.70;99.90;;;;;;5022360;28;20421;-82
2021/11/01 09:42:49;;;;;;;5.93;5.17;;;11.60;99.90;;;;;;5046244;28;20885;-78
2021/11/01 09:45:19;;;;;;;8.03;4.73;;;11.70;99.90;;;;;;5070788;28;20468;-80
2021/11/01 09:47:47;;;;;;;9.37;5.87;;;11.50;99.90;;;;;;5065900;28;20837;-81
2021/11/01 09:50:20;;;;;;;8.37;5.57;;;11.60;99.90;;;;;;5047972;28;20448;-81
2021/11/01 09:52:57;;;;;;;11.03;5.43;;;11.50;99.90;;;;;;5046195;28;20539;-80
2021/11/01 10:00:54;;;;;;;10.33;5.30;;;11.50;99.90;;;;;;5045064;28;20418;-80
2021/11/01 10:03:42;;;;;;;5.03;4.37;;;11.50;99.90;;;;;;5048657;28;20433;-78
2021/11/01 10:06:12;;;;;;;7.47;5.70;;;11.50;99.90;;;;;;5043530;28;20512;-79
2021/11/01 10:08:47;;;;;;;6.57;4.20;;;11.60;99.90;;;;;;5014355;28;20518;-83
2021/11/01 10:11:17;;;;;;;6.73;5.30;;;11.50;99.90;;;;;;5032502;28;20942;-82
2021/11/01 10:13:52;;;;;;;8.43;4.97;;;11.40;99.90;;;;;;5029430;28;20391;-80
2021/11/01 10:19:12;;;;;;;8.60;5.37;;;11.30;99.90;;;;;;5008083;28;20508;-80
2021/11/01 10:21:56;;;;;;;8.57;4.73;;;11.30;99.90;;;;;;5049289;28;20438;-80
2021/11/01 10:24:26;;;;;;;6.13;5.03;;;11.30;99.90;;;;;;5020889;28;20927;-80
2021/11/01 10:26:56;;;;;;;4.00;3.60;;;11.40;99.90;;;;;;5004535;28;20416;-79
2021/11/01 10:29:22;;;;;;;7.17;6.20;;;11.50;99.90;;;;;;5000323;28;20445;-80
2021/11/01 10:31:50;;;;;;;4.70;4.20;;;11.60;99.90;;;;;;4984533;28;20412;-80
2021/11/01 10:34:17;;;;;;;7.00;4.10;;;11.60;99.90;;;;;;4980572;28;20414;-82
2021/11/01 10:37:10;;;;;;;4.90;3.33;;;11.40;99.90;;;;;;4949939;28;20191;-79
2021/11/01 10:39:37;;;;;;;5.77;3.60;;;11.40;99.90;;;;;;4933047;29;20930;-79
2021/11/01 10:42:15;;;;;;;5.43;3.37;;;11.40;99.90;;;;;;4940636;29;20420;-80
2021/11/01 10:45:12;;;;;;;5.60;2.93;;;11.40;99.90;;;;;;4946436;29;20455;-79
2021/11/01 10:56:23;;;;;;;3.77;3.10;;;11.20;99.90;;;;;;4912785;29;20417;-81
2021/11/01 10:59:09;;;;;;;6.40;2.07;;;11.20;99.90;;;;;;4875803;29;20400;-79
2021/11/01 11:12:39;;;;;;;5.43;2.63;;;11.20;99.90;;;;;;4889788;29;20434;-80
2021/11/01 11:15:11;;;;;;;2.60;2.00;;;11.10;99.90;;;;;;4891654;29;20420;-80
2021/11/01 11:23:38;;;;;;;2.93;2.63;;;11.00;99.90;;;;;;4898668;29;20432;-81
2021/11/01 11:26:15;;;;;;;3.70;2.43;;;11.10;99.90;;;;;;4923042;29;20640;-79
2021/11/01 11:29:13;;;;;;;2.10;1.93;;;11.00;99.90;;;;;;4928732;28;20411;-80
2021/11/01 11:43:32;;;;;;;4.50;2.40;;;11.10;99.90;;;;;;5084533;28;20407;-80
2021/11/01 11:48:47;;;;;;;6.37;1.90;;;11.10;99.90;;;;;;5085436;28;20451;-79
2021/11/01 11:51:15;;;;;;;1.80;1.60;;;11.00;99.90;;;;;;5065909;28;20412;-79
2021/11/01 11:54:02;;;;;;;2.40;1.93;;;11.00;99.90;;;;;;5052611;28;20409;-82
2021/11/01 11:56:32;;;;;;;5.30;2.30;;;11.00;99.90;;;;;;5089785;28;20445;-81
2021/11/01 11:59:01;;;;;;;1.90;1.77;;;11.00;99.90;;;;;;5071668;28;20396;-79
2021/11/01 12:01:34;;;;;;;3.47;2.40;;;10.90;99.90;;;;;;5061372;28;20408;-80
2021/11/01 12:04:05;;;;;;;2.50;2.30;;;11.20;99.90;;;;;;5070778;28;20408;-80
2021/11/01 12:06:51;;;;;;;2.10;1.90;;;11.20;99.90;;;;;;5103488;28;20376;-80
2021/11/01 12:09:22;;;;;;;7.20;2.03;;;11.10;99.90;;;;;;5066245;28;20431;-80
2021/11/01 12:12:15;;;;;;;3.93;2.50;;;11.00;99.90;;;;;;5102020;28;20521;-80
2021/11/01 12:17:29;;;;;;;3.90;2.40;;;11.20;99.90;;;;;;5090704;28;20408;-81
2021/11/01 12:20:09;;;;;;;7.40;4.43;;;11.20;99.90;;;;;;5070211;28;20421;-81
2021/11/01 12:23:03;;;;;;;4.60;2.30;;;11.20;99.90;;;;;;5071337;28;20412;-80
2021/11/01 12:25:36;;;;;;;3.73;2.50;;;11.10;99.90;;;;;;5005111;28;20457;-82
2021/11/01 12:28:06;;;;;;;2.70;2.50;;;11.10;99.90;;;;;;4988157;28;20413;-81
2021/11/01 12:30:39;;;;;;;2.40;1.80;;;10.90;99.90;;;;;;4987799;28;20433;-81
2021/11/01 12:33:10;;;;;;;6.27;2.63;;;11.00;99.90;;;;;;4989157;28;20924;-80
2021/11/01 12:35:43;;;;;;;4.73;2.03;;;10.90;99.90;;;;;;5002876;28;20496;-80
2021/11/01 12:38:13;;;;;;;4.53;2.60;;;11.00;99.90;;;;;;4987023;28;20520;-81
2021/11/01 12:40:51;;;;;;;2.10;1.77;;;11.00;99.90;;;;;;5003206;28;20484;-80
2021/11/01 12:59:42;;;;;;;3.03;1.90;;;11.10;99.90;;;;;;5053968;28;20404;-82
2021/11/01 13:02:30;;;;;;;1.80;1.70;;;11.20;99.90;;;;;;5064634;28;20394;-80
2021/11/01 13:05:00;;;;;;;2.20;2.00;;;11.10;99.90;;;;;;5034581;28;20940;-81
2021/11/01 13:07:35;;;;;;;2.50;1.70;;;11.30;99.90;;;;;;5034053;28;20413;-81
2021/11/01 13:18:23;;;;;;;5.60;2.70;;;11.00;99.90;;;;;;5109376;28;20393;-82
2021/11/01 13:20:59;;;;;;;2.00;1.40;;;11.20;99.90;;;;;;5088452;28;20456;-81
2021/11/01 13:23:30;;;;;;;6.47;2.07;;;11.10;99.90;;;;;;5062480;28;20434;-81
2021/11/01 13:26:17;;;;;;;6.23;2.00;;;11.10;99.90;;;;;;5016239;28;20473;-80
2021/11/01 13:29:01;;;;;;;3.40;2.80;;;11.00;99.90;;;;;;5035594;28;20415;-80
2021/11/01 13:37:09;;;;;;;2.70;2.60;;;11.00;99.90;;;;;;5048863;28;20418;-81
2021/11/01 13:39:37;;;;;;;3.47;2.27;;;11.10;99.90;;;;;;5029225;28;20525;-80
2021/11/01 13:42:10;;;;;;;2.40;2.03;;;11.10;99.90;;;;;;5025297;28;20406;-80
2021/11/01 13:44:36;;;;;;;3.90;2.10;;;11.00;99.90;;;;;;5003174;28;20458;-80
2021/11/01 13:47:06;;;;;;;2.83;2.43;;;11.00;99.90;;;;;;4973355;28;20405;-80
2021/11/01 13:49:37;;;;;;;3.73;1.70;;;11.20;99.90;;;;;;4978326;28;20412;-82
2021/11/01 13:52:24;;;;;;;3.30;1.83;;;11.00;99.90;;;;;;4972274;28;20400;-79
2021/11/01 13:55:11;;;;;;;2.80;2.00;;;11.20;99.90;;;;;;4999290;28;20434;-82
2021/11/01 13:58:21;;;;;;;5.80;2.40;;;11.10;99.90;;;;;;4988679;28;20799;-82
2021/11/01 14:00:55;;;;;;;2.50;2.23;;;11.20;99.90;;;;;;4978575;28;20456;-82
2021/11/01 14:12:08;;;;;;;4.53;2.20;;;11.10;99.90;;;;;;4953079;29;20418;-82
2021/11/01 14:17:58;;;;;;;2.93;2.57;;;11.00;99.90;;;;;;4952575;28;20472;-82
2021/11/01 14:28:31;;;;;;;5.77;1.93;;;10.90;99.90;;;;;;5038125;28;20424;-83
2021/11/01 14:31:16;;;;;;;3.47;2.97;;;11.10;99.90;;;;;;5047347;28;20410;-83
2021/11/01 14:34:07;;;;;;;2.53;2.33;;;11.20;99.90;;;;;;5034178;28;20481;-81
2021/11/01 14:58:33;;;;;;;4.50;3.23;;;11.00;99.90;;;;;;5070801;28;20405;-80
2021/11/01 15:01:17;;;;;;;2.97;2.70;;;10.90;99.90;;;;;;5043912;28;20521;-80
2021/11/01 15:07:00;;;;;;;3.43;2.60;;;10.70;99.90;;;;;;5034406;28;20474;-80
2021/11/01 15:14:55;;;;;;;4.57;2.67;;;10.70;99.90;;;;;;5033310;28;20412;-80
2021/11/01 15:17:33;;;;;;;2.63;2.43;;;10.70;99.90;;;;;;5040272;28;20419;-80
2021/11/01 15:20:23;;;;;;;6.30;2.23;;;10.70;99.90;;;;;;5023016;28;20411;-79
2021/11/01 15:23:14;;;;;;;5.60;2.60;;;10.60;99.90;;;;;;4994303;28;20438;-81
2021/11/01 15:26:00;;;;;;;3.63;2.47;;;10.60;99.90;;;;;;5025259;28;20466;-81
2021/11/01 15:39:37;;;;;;;3.53;2.90;;;10.50;99.90;;;;;;5019798;28;20523;-80
2021/11/01 15:42:29;;;;;;;3.10;2.80;;;10.40;99.90;;;;;;4967107;28;20517;-80
2021/11/01 16:19:39;;;;;;;5.40;3.37;;;10.00;99.90;;;;;;5021398;28;20519;-81
2021/11/01 16:22:09;;;;;;;3.30;3.00;;;10.00;99.90;;;;;;5011439;28;20446;-80
2021/11/01 16:24:37;;;;;;;3.43;2.50;;;10.10;99.90;;;;;;5011027;28;20454;-81
2021/11/01 16:27:04;;;;;;;7.63;2.97;;;10.10;99.90;;;;;;5006684;28;20415;-80
2021/11/01 16:29:42;;;;;;;4.17;2.53;;;10.10;99.90;;;;;;5035381;28;20804;-79
2021/11/01 16:34:57;;;;;;;4.90;2.70;;;10.10;99.90;;;;;;5045024;28;20465;-80
2021/11/01 16:37:29;;;;;;;4.47;3.73;;;10.10;99.90;;;;;;5043201;28;20406;-80
2021/11/01 16:40:00;;;;;;;3.43;2.80;;;10.00;99.90;;;;;;5020367;28;20537;-81
2021/11/01 16:42:32;;;;;;;11.60;2.77;;;9.90;99.90;;;;;;4965041;28;20480;-81
2021/11/01 16:45:18;;;;;;;8.13;3.53;;;9.90;99.90;;;;;;4948594;28;20462;-80
2021/11/01 16:47:46;;;;;;;6.20;3.17;;;9.80;99.90;;;;;;4964392;28;20442;-80
2021/11/01 16:50:13;;;;;;;2.70;2.50;;;9.90;99.90;;;;;;4949675;28;20414;-78
2021/11/01 16:52:41;;;;;;;3.47;2.70;;;9.90;99.90;;;;;;4946696;29;20427;-79
2021/11/01 16:55:14;;;;;;;4.03;3.20;;;9.80;99.90;;;;;;4913409;28;20951;-80
2021/11/01 16:57:45;;;;;;;2.90;2.60;;;9.80;99.90;;;;;;4949351;28;20418;-81
2021/11/01 17:00:35;;;;;;;2.87;2.67;;;9.80;99.90;;;;;;4951207;28;20437;-82
2021/11/01 17:03:27;;;;;;;2.83;2.40;;;9.80;99.90;;;;;;4957300;29;20494;-82
2021/11/01 17:05:59;;;;;;;4.00;3.40;;;9.80;99.90;;;;;;4964893;28;20467;-81
2021/11/01 17:09:01;;;;;;;4.03;3.70;;;9.80;99.90;;;;;;4948742;29;20769;-81
2021/11/01 17:21:17;;;;;;;7.70;3.30;;;9.80;99.90;;;;;;4985356;28;20406;-81
2021/11/01 17:22:27;;;;;;;4.20;2.50;;;10.00;99.90;;;;;;5054329;28;20413;-80
2021/11/01 17:24:59;;;;;;;5.60;3.63;;;9.90;99.90;;;;;;5066916;28;20452;-81
2021/11/01 17:27:45;;;;;;;6.20;2.90;;;9.90;99.90;;;;;;5082563;28;20394;-80
2021/11/01 17:34:48;;;;;;;8.40;4.70;;;9.90;99.90;;;;;;5059578;28;20398;-83
2021/11/01 17:36:21;;;;;;;3.80;3.23;;;10.10;99.90;;;;;;5111416;28;20451;-80
2021/11/01 18:23:47;;;;;;;3.30;3.00;;;10.00;99.90;;;;;;5124359;28;20483;-81
2021/11/01 18:25:07;;;;;;;3.57;3.27;;;9.80;99.90;;;;;;5054309;28;20413;-81
2021/11/01 18:40:25;;;;;;;5.10;3.40;;;9.80;99.90;;;;;;5043424;28;20396;-79
2021/11/01 18:46:10;;;;;;;4.93;4.27;;;9.60;99.90;;;;;;5014617;28;20443;-80
2021/11/01 18:51:32;;;;;;;4.53;3.70;;;9.80;99.90;;;;;;5019952;28;20417;-80
2021/11/01 18:54:08;;;;;;;3.70;3.37;;;9.70;99.90;;;;;;5003723;28;20388;-80
2021/11/01 18:56:39;;;;;;;4.37;4.07;;;9.70;99.90;;;;;;4967736;28;20408;-79
2021/11/01 18:59:08;;;;;;;3.50;3.20;;;9.70;99.90;;;;;;4953714;28;20392;-79
2021/11/01 19:01:37;;;;;;;5.20;2.90;;;9.80;99.90;;;;;;4951393;28;20421;-79
2021/11/01 19:04:13;;;;;;;4.93;3.20;;;9.60;99.90;;;;;;4952094;28;20455;-80
2021/11/01 19:09:39;;;;;;;4.43;3.93;;;9.80;99.90;;;;;;5036898;28;20523;-80
2021/11/01 19:12:57;;;;;;;4.33;3.93;;;9.70;99.90;;;;;;5023904;28;20403;-80
2021/11/01 19:15:52;;;;;;;3.30;2.90;;;9.80;99.90;;;;;;5028479;28;20451;-81
2021/11/01 20:04:01;;;;;;;6.30;4.07;;;9.50;99.90;;;;;;5113005;28;20796;-84
2021/11/01 20:06:55;;;;;;;4.70;3.50;;;9.50;99.90;;;;;;5107134;28;20440;-82
2021/11/01 20:09:56;;;;;;;4.30;3.90;;;9.50;99.90;;;;;;5107259;28;20428;-82
2021/11/01 21:25:45;;;;;;;4.07;3.67;;;9.30;99.90;;;;;;5107880;28;20424;-82
2021/11/01 21:28:11;;;;;;;7.55;4.70;;;9.20;99.90;;;;;;5108143;28;20431;-82
2021/11/01 21:30:37;;;;;;;3.93;3.63;;;9.20;99.90;;;;;;5108203;28;20159;-82
2021/11/01 21:33:03;;;;;;;5.57;4.40;;;9.20;99.90;;;;;;5108625;28;20401;-83
2021/11/01 21:35:31;;;;;;;4.90;4.50;;;9.20;99.90;;;;;;5101539;28;20225;-83
2021/11/01 21:37:59;;;;;;;11.77;5.13;;;9.20;99.90;;;;;;5111040;28;20395;-82
2021/11/01 21:40:25;;;;;;;8.40;4.50;;;9.30;99.90;;;;;;5128330;28;20422;-83
2021/11/01 21:42:52;;;;;;;3.90;3.50;;;9.20;99.90;;;;;;5128643;28;20467;-83
2021/11/01 21:45:18;;;;;;;9.80;4.43;;;9.20;99.90;;;;;;5127543;28;20883;-81
2021/11/01 21:47:44;;;;;;;7.83;4.47;;;9.10;99.90;;;;;;5128537;28;20407;-82
2021/11/01 21:50:10;;;;;;;5.17;4.23;;;9.30;99.90;;;;;;5109775;28;20392;-82
2021/11/01 21:52:37;;;;;;;5.60;4.50;;;9.20;99.90;;;;;;5128077;28;20192;-82
2021/11/01 21:55:07;;;;;;;4.57;4.20;;;9.20;99.90;;;;;;5128257;28;20653;-81